Airfield :
LOGIN :

Register | Disclaimer

   EN    FR    IT 

 










Legend :    VFR   Marginal VFR   IFR   Intensive IFR   Very Intensive IFR
Visi :
Ceiling :
>= 8 km
>= 3000ft
5 to 8 km
1000 to 3000 ft
1500m to 5 km
500 to 1000 ft
800 to 1500m
200 to 500 ft
< 800m
< 200 ft
Symbols :   Thunderstorms  Fog  Heavy snow  Heavy precipitations  Wind > 20 kt
SIGMETs :     Misc.  Thunderstorms  Icing  Turbulence  Mountain Waves  Volcanic Ashes






- Airport Elevation : 1000 ft
- IATA code : PEV


LHPP - Pécs Pogany

CURRENT METAR :
  • 261715Z 33006KT CAVOK 01/M05 Q1014

EXPIRED METARs :
  • 261645Z 33006KT CAVOK 01/M05 Q1014
  • 261615Z 33005KT 9999 FEW033 01/M05 Q1014
  • 261545Z 33005KT 9999 FEW033 02/M05 Q1013
  • 261515Z 34009KT 9999 FEW033 03/M05 Q1013
  • 261445Z 33010KT 9999 FEW033 03/M04 Q1013

TAF TAF LHPP
Valid from the 26 at 15:00 until the 27 at 00:00 UTC


261415Z 2615/2624 34014G24KT CAVOK
BECMG 2615/2618 27006KT
BECMG 2618/2621 BKN040 OVC060
PROB30
TEMPO 2621/2624 VRB14G24KT 3000 SHSN BKN025 OVC040



MET'MAP, your aeronautical weather chart ! - Copyright ORBIFLY December 2007 - Disclaimer

ORBIFLY MET'MAP TEAM :

Programming & Development : Alexandra Zaïnal
Concept & original design : Baudouin d'Aumeries
Assistance for programming : Marc-Olivier Méhu
Technical & hardware support : Manuel Goepfert

Contact : metmap@orbifly.com




SOURCES & CREDITS :

   NOAA